Time;durP1;ratioP1;P1;durP2;ratioP2;P2;SDS_P1;SDS_P2;PMS_P1;PMS_P2;Temp;Humidity;BMP_temperature;BMP_pressure;BME280_temperature;BME280_humidity;BME280_pressure;Samples;Min_cycle;Max_cycle;Signal;HPM_P1;HPM_P2
2021/01/09 00:00:23;;;;;;;18.30;10.82;;;1.00;99.90;;;;;;5054151;28;20029;-70
2021/01/09 00:02:49;;;;;;;17.33;10.35;;;1.00;99.90;;;;;;5053539;28;20028;-70
2021/01/09 00:05:14;;;;;;;17.00;11.27;;;1.10;99.90;;;;;;5052944;28;20040;-69
2021/01/09 00:07:40;;;;;;;17.58;10.45;;;1.00;99.90;;;;;;5053299;28;20059;-68
2021/01/09 00:10:08;;;;;;;15.65;10.40;;;1.00;99.90;;;;;;5053682;28;20483;-68
2021/01/09 00:12:36;;;;;;;17.00;11.20;;;1.20;99.90;;;;;;5038724;28;20029;-69
2021/01/09 00:15:03;;;;;;;20.45;10.70;;;1.00;99.90;;;;;;5033039;28;20076;-68
2021/01/09 00:17:29;;;;;;;19.02;11.02;;;0.90;99.90;;;;;;5035112;28;20052;-71
2021/01/09 00:19:55;;;;;;;20.73;11.25;;;0.90;99.90;;;;;;5039454;28;20080;-69
2021/01/09 00:22:21;;;;;;;18.67;11.75;;;1.00;99.90;;;;;;5040270;28;20101;-68
2021/01/09 00:24:46;;;;;;;18.13;11.15;;;0.90;99.90;;;;;;5018213;28;20052;-68
2021/01/09 00:27:13;;;;;;;19.52;11.35;;;0.80;99.90;;;;;;5035232;28;20041;-68
2021/01/09 00:29:40;;;;;;;16.48;10.43;;;0.80;99.90;;;;;;5033363;28;20108;-70
2021/01/09 00:32:06;;;;;;;18.83;10.85;;;0.90;99.90;;;;;;5032239;28;20036;-68
2021/01/09 00:34:32;;;;;;;16.70;11.48;;;0.80;99.90;;;;;;5032754;28;20021;-69
2021/01/09 00:36:58;;;;;;;19.08;11.75;;;0.90;99.90;;;;;;5052682;28;20025;-70
2021/01/09 00:39:24;;;;;;;20.63;12.48;;;0.90;99.90;;;;;;5052676;28;20079;-70
2021/01/09 00:41:50;;;;;;;20.85;11.32;;;0.30;99.90;;;;;;5052826;28;20025;-66
2021/01/09 00:44:16;;;;;;;20.05;11.52;;;0.70;99.90;;;;;;5051849;28;20025;-68
2021/01/09 00:46:42;;;;;;;19.35;11.68;;;0.70;99.90;;;;;;5052556;28;20096;-70
2021/01/09 00:49:08;;;;;;;18.05;10.75;;;0.70;99.90;;;;;;5052428;28;20108;-67
2021/01/09 00:51:34;;;;;;;18.40;11.60;;;0.80;99.90;;;;;;5052209;28;20372;-68
2021/01/09 00:53:59;;;;;;;19.02;11.57;;;0.70;99.90;;;;;;5034019;28;20131;-68
2021/01/09 00:56:25;;;;;;;20.50;11.02;;;0.80;99.90;;;;;;5052232;28;20021;-69
2021/01/09 00:58:50;;;;;;;18.05;11.68;;;0.80;99.90;;;;;;5052326;28;20027;-67
2021/01/09 01:01:16;;;;;;;19.15;11.00;;;1.20;99.90;;;;;;5052329;28;20041;-68
2021/01/09 01:03:42;;;;;;;16.65;11.32;;;0.80;99.90;;;;;;5033683;28;20025;-69
2021/01/09 01:06:11;;;;;;;17.88;11.00;;;0.90;99.90;;;;;;5052080;28;20036;-69
2021/01/09 01:08:37;;;;;;;20.88;12.20;;;0.80;99.90;;;;;;5034499;28;20021;-68
2021/01/09 01:11:08;;;;;;;18.77;11.82;;;0.90;99.90;;;;;;5052354;28;20078;-68
2021/01/09 01:13:34;;;;;;;16.38;10.27;;;0.90;99.90;;;;;;5051524;28;20025;-70
2021/01/09 01:15:59;;;;;;;17.50;11.40;;;0.90;99.90;;;;;;5052072;28;20025;-69
2021/01/09 01:18:25;;;;;;;17.63;10.93;;;0.80;99.90;;;;;;5051925;28;20071;-69
2021/01/09 01:20:51;;;;;;;17.45;11.25;;;0.80;99.90;;;;;;5052052;28;20017;-70
2021/01/09 01:23:17;;;;;;;18.90;10.80;;;0.80;99.90;;;;;;5050019;28;20087;-70
2021/01/09 01:25:43;;;;;;;20.92;11.23;;;0.80;99.90;;;;;;5051821;28;20052;-70
2021/01/09 01:28:09;;;;;;;17.30;10.38;;;0.90;99.90;;;;;;5052273;28;20037;-69
2021/01/09 01:30:34;;;;;;;19.90;12.05;;;0.90;99.90;;;;;;5051967;28;20075;-69
2021/01/09 01:33:01;;;;;;;22.15;12.27;;;0.90;99.90;;;;;;5051200;28;20029;-69
2021/01/09 01:35:27;;;;;;;20.13;12.40;;;0.80;99.90;;;;;;5051301;28;20131;-70
2021/01/09 01:37:52;;;;;;;20.40;11.57;;;0.80;99.90;;;;;;5051736;28;20116;-69
2021/01/09 01:40:18;;;;;;;16.58;10.88;;;0.80;99.90;;;;;;5051954;28;20025;-69
2021/01/09 01:42:44;;;;;;;17.75;11.63;;;0.80;99.90;;;;;;5051201;28;20553;-69
2021/01/09 01:45:10;;;;;;;17.95;10.27;;;0.80;99.90;;;;;;5033598;28;20120;-69
2021/01/09 01:47:36;;;;;;;20.48;11.05;;;0.80;99.90;;;;;;5051625;28;20446;-70
2021/01/09 01:50:03;;;;;;;19.63;11.60;;;0.80;99.90;;;;;;5034517;28;20072;-68
2021/01/09 01:52:29;;;;;;;18.63;12.15;;;0.70;99.90;;;;;;5052790;28;20510;-70
2021/01/09 01:54:55;;;;;;;18.77;11.20;;;0.70;99.90;;;;;;5038696;28;20048;-71
2021/01/09 01:57:21;;;;;;;20.27;11.55;;;0.70;99.90;;;;;;5064712;28;20045;-69
2021/01/09 01:59:46;;;;;;;19.27;11.25;;;0.80;99.90;;;;;;5065545;28;20028;-70
2021/01/09 02:02:13;;;;;;;19.10;10.90;;;0.80;99.90;;;;;;5047033;28;20116;-69
2021/01/09 02:04:40;;;;;;;19.35;11.05;;;0.70;99.90;;;;;;5054867;28;20036;-70
2021/01/09 02:07:18;;;;;;;19.30;11.70;;;0.80;99.90;;;;;;5061387;28;20041;-72
2021/01/09 02:09:48;;;;;;;15.65;10.63;;;0.80;99.90;;;;;;5067008;28;20044;-69
2021/01/09 02:12:34;;;;;;;17.35;11.25;;;0.80;99.90;;;;;;5062872;28;20029;-70
2021/01/09 02:15:01;;;;;;;19.25;11.57;;;0.80;99.90;;;;;;5054036;28;20033;-70
2021/01/09 02:17:28;;;;;;;18.83;11.90;;;0.90;99.90;;;;;;5054029;28;20390;-66
2021/01/09 02:19:58;;;;;;;21.13;11.43;;;0.90;99.90;;;;;;5052666;28;20493;-68
2021/01/09 02:22:24;;;;;;;20.67;11.15;;;1.00;99.90;;;;;;5055395;28;20021;-69
2021/01/09 02:24:50;;;;;;;22.67;11.85;;;0.90;99.90;;;;;;5058474;28;20017;-68
2021/01/09 02:27:16;;;;;;;18.20;11.30;;;1.00;99.90;;;;;;5051868;28;20430;-69
2021/01/09 02:30:03;;;;;;;17.92;10.95;;;1.00;99.90;;;;;;5034158;28;20017;-70
2021/01/09 02:32:36;;;;;;;15.95;10.27;;;1.10;99.90;;;;;;5051632;28;20417;-71
2021/01/09 02:35:02;;;;;;;17.02;12.07;;;1.10;99.90;;;;;;5051001;28;20032;-68
2021/01/09 02:37:28;;;;;;;19.30;11.07;;;1.00;99.90;;;;;;5033048;28;20036;-69
2021/01/09 02:39:55;;;;;;;18.13;11.00;;;1.10;99.90;;;;;;5051388;28;20483;-70
2021/01/09 02:42:21;;;;;;;19.83;11.93;;;1.00;99.90;;;;;;5051175;28;20029;-69
2021/01/09 02:44:52;;;;;;;19.27;11.63;;;1.10;99.90;;;;;;5050374;28;20029;-68
2021/01/09 02:47:18;;;;;;;21.23;11.95;;;1.00;99.90;;;;;;5051223;28;20513;-68
2021/01/09 02:49:44;;;;;;;18.77;11.68;;;0.90;99.90;;;;;;5051188;28;20021;-68
2021/01/09 02:52:10;;;;;;;21.83;12.63;;;0.90;99.90;;;;;;5050560;28;20480;-71
2021/01/09 02:54:36;;;;;;;21.10;12.80;;;1.00;99.90;;;;;;5050255;28;20025;-68
2021/01/09 02:57:02;;;;;;;25.48;13.82;;;0.80;99.90;;;;;;5054428;28;20415;-69
2021/01/09 02:59:28;;;;;;;20.60;12.05;;;0.80;99.90;;;;;;5054563;28;20021;-68
2021/01/09 03:01:54;;;;;;;19.60;12.52;;;0.80;99.90;;;;;;5054545;28;20033;-70
2021/01/09 03:04:20;;;;;;;22.02;12.70;;;0.80;99.90;;;;;;5035739;28;20021;-70
2021/01/09 03:06:45;;;;;;;19.92;12.35;;;0.70;99.90;;;;;;5053998;28;20040;-67
2021/01/09 03:09:11;;;;;;;19.25;11.82;;;0.80;99.90;;;;;;5054432;28;20021;-70
2021/01/09 03:11:37;;;;;;;21.42;12.85;;;0.80;99.90;;;;;;5054348;28;20024;-69
2021/01/09 03:14:04;;;;;;;18.83;12.30;;;0.70;99.90;;;;;;5053748;28;20025;-69
2021/01/09 03:16:30;;;;;;;23.55;13.00;;;0.70;99.90;;;;;;5053828;28;20365;-69
2021/01/09 03:18:55;;;;;;;20.00;12.15;;;0.80;99.90;;;;;;5054980;28;20037;-69
2021/01/09 03:21:21;;;;;;;22.38;13.38;;;0.80;99.90;;;;;;5054220;28;20090;-68
2021/01/09 03:23:47;;;;;;;20.58;13.10;;;0.90;99.90;;;;;;5053725;28;20028;-69
2021/01/09 03:26:12;;;;;;;18.58;11.93;;;0.90;99.90;;;;;;5054094;28;20029;-68
2021/01/09 03:28:38;;;;;;;22.83;13.57;;;1.00;99.90;;;;;;5053996;28;20108;-70
2021/01/09 03:31:04;;;;;;;24.77;14.98;;;1.00;99.90;;;;;;5054134;28;20468;-70
2021/01/09 03:33:30;;;;;;;21.88;13.07;;;1.00;99.90;;;;;;5035527;28;20029;-72
2021/01/09 03:35:56;;;;;;;21.65;13.07;;;0.90;99.90;;;;;;5053628;28;20031;-70
2021/01/09 03:38:21;;;;;;;20.02;12.95;;;0.90;99.90;;;;;;5054462;28;20415;-70
2021/01/09 03:40:47;;;;;;;20.05;12.68;;;0.90;99.90;;;;;;5054028;28;20031;-65
2021/01/09 03:43:13;;;;;;;20.60;11.98;;;0.90;99.90;;;;;;5053314;28;20021;-66
2021/01/09 03:45:38;;;;;;;20.40;12.82;;;0.90;99.90;;;;;;5054069;28;20506;-68
2021/01/09 03:48:05;;;;;;;21.90;13.30;;;1.00;99.90;;;;;;5036166;28;20032;-67
2021/01/09 03:50:30;;;;;;;19.38;11.98;;;1.00;99.90;;;;;;5053775;28;20029;-69
2021/01/09 03:52:56;;;;;;;18.30;12.65;;;1.10;99.90;;;;;;5053910;28;20697;-69
2021/01/09 03:55:22;;;;;;;18.42;12.23;;;1.00;99.90;;;;;;5053544;28;20032;-69
2021/01/09 03:57:47;;;;;;;18.58;12.80;;;1.10;99.90;;;;;;5053530;28;20033;-68
2021/01/09 04:00:14;;;;;;;17.48;11.85;;;1.00;99.90;;;;;;5053527;28;20044;-70
2021/01/09 04:02:40;;;;;;;21.38;12.95;;;1.10;99.90;;;;;;5052945;28;20021;-69
2021/01/09 04:05:08;;;;;;;23.90;11.15;;;1.00;99.90;;;;;;5053003;28;20051;-69
2021/01/09 04:07:37;;;;;;;20.02;13.13;;;1.10;99.90;;;;;;5053134;28;20029;-70
2021/01/09 04:10:03;;;;;;;18.88;11.73;;;1.10;99.90;;;;;;5053456;28;20059;-70
2021/01/09 04:12:29;;;;;;;21.63;12.70;;;1.10;99.90;;;;;;5053441;28;20029;-70
2021/01/09 04:14:55;;;;;;;23.95;13.88;;;1.10;99.90;;;;;;5051136;28;20025;-73
2021/01/09 04:17:20;;;;;;;24.42;13.68;;;1.20;99.90;;;;;;5033750;28;20021;-70
2021/01/09 04:19:46;;;;;;;18.92;12.82;;;1.20;99.90;;;;;;5033629;28;20029;-68
2021/01/09 04:22:12;;;;;;;20.92;12.55;;;1.00;99.90;;;;;;5033443;28;20113;-70
2021/01/09 04:24:37;;;;;;;22.75;13.18;;;0.90;99.90;;;;;;5015373;28;20028;-69
2021/01/09 04:27:03;;;;;;;20.45;12.15;;;0.90;99.90;;;;;;5033300;28;20028;-70
2021/01/09 04:29:29;;;;;;;22.58;13.85;;;0.90;99.90;;;;;;5033364;28;20017;-70
2021/01/09 04:31:56;;;;;;;21.20;13.18;;;1.00;99.90;;;;;;5033223;28;20017;-70
2021/01/09 04:34:23;;;;;;;24.65;14.27;;;1.00;99.90;;;;;;5032293;28;20500;-71
2021/01/09 04:36:49;;;;;;;20.20;12.77;;;1.00;99.90;;;;;;5052242;28;20060;-71
2021/01/09 04:39:15;;;;;;;20.70;12.95;;;0.90;99.90;;;;;;5053170;28;20021;-71
2021/01/09 04:41:43;;;;;;;26.65;13.07;;;0.80;99.90;;;;;;5052827;28;20036;-72
2021/01/09 04:44:10;;;;;;;23.05;13.80;;;0.80;99.90;;;;;;5052158;28;20017;-70
2021/01/09 04:46:48;;;;;;;23.95;13.80;;;0.80;99.90;;;;;;5052503;28;20059;-70
2021/01/09 04:49:14;;;;;;;21.08;13.40;;;0.80;99.90;;;;;;5052920;28;20028;-71
2021/01/09 04:51:42;;;;;;;23.48;14.27;;;0.80;99.90;;;;;;5052487;28;20021;-69
2021/01/09 04:54:12;;;;;;;26.00;13.95;;;0.80;99.90;;;;;;5052242;28;20021;-70
2021/01/09 04:56:39;;;;;;;23.70;14.20;;;0.90;99.90;;;;;;5052522;28;20032;-72
2021/01/09 04:59:04;;;;;;;20.98;13.10;;;0.90;99.90;;;;;;5052475;28;20021;-71
2021/01/09 05:01:30;;;;;;;19.65;13.20;;;0.80;99.90;;;;;;5034590;28;20083;-72
2021/01/09 05:03:56;;;;;;;23.15;14.15;;;0.90;99.90;;;;;;5051839;28;20475;-70
2021/01/09 05:06:22;;;;;;;23.58;13.65;;;0.80;99.90;;;;;;5051892;28;20025;-70
2021/01/09 05:08:48;;;;;;;23.60;13.32;;;0.90;99.90;;;;;;5052232;28;20404;-69
2021/01/09 05:11:18;;;;;;;24.52;13.48;;;0.90;99.90;;;;;;5052317;28;20158;-71
2021/01/09 05:13:45;;;;;;;21.00;13.65;;;0.90;99.90;;;;;;5051469;28;20391;-72
2021/01/09 05:16:12;;;;;;;21.63;13.95;;;1.00;99.90;;;;;;5052124;28;20437;-70
2021/01/09 05:18:39;;;;;;;23.13;14.15;;;1.00;99.90;;;;;;5051853;28;20013;-71
2021/01/09 05:21:12;;;;;;;22.40;14.68;;;1.00;99.90;;;;;;5052030;28;20158;-72
2021/01/09 05:23:57;;;;;;;22.08;13.98;;;1.00;99.90;;;;;;5051533;28;20471;-71
2021/01/09 05:26:23;;;;;;;24.63;13.60;;;0.90;99.90;;;;;;5034014;28;20029;-71
2021/01/09 05:28:57;;;;;;;21.70;13.57;;;0.90;99.90;;;;;;5052006;28;20029;-72
2021/01/09 05:31:23;;;;;;;22.08;13.75;;;0.90;99.90;;;;;;5034248;28;20116;-72
2021/01/09 05:33:52;;;;;;;24.65;14.18;;;0.90;99.90;;;;;;5050973;28;20478;-70
2021/01/09 05:36:18;;;;;;;23.73;14.57;;;0.90;99.90;;;;;;5051125;28;20029;-71
2021/01/09 05:38:46;;;;;;;22.80;14.05;;;0.90;99.90;;;;;;5051585;28;20021;-71
2021/01/09 05:41:14;;;;;;;26.83;15.10;;;1.00;99.90;;;;;;5033656;28;20049;-72
2021/01/09 05:43:40;;;;;;;23.60;15.32;;;1.00;99.90;;;;;;5051147;28;20017;-70
2021/01/09 05:46:07;;;;;;;22.92;14.25;;;0.90;99.90;;;;;;5051417;28;20040;-70
2021/01/09 05:48:36;;;;;;;25.25;15.70;;;0.90;99.90;;;;;;5051627;28;20021;-72
2021/01/09 05:51:06;;;;;;;22.52;14.00;;;0.90;99.90;;;;;;5051141;28;20021;-71
2021/01/09 05:53:48;;;;;;;23.67;15.35;;;0.80;99.90;;;;;;5050829;28;20036;-71
2021/01/09 05:56:18;;;;;;;23.55;14.93;;;0.90;99.90;;;;;;5051294;28;20104;-69
2021/01/09 05:58:44;;;;;;;25.45;15.73;;;0.90;99.90;;;;;;5051504;28;20033;-70
2021/01/09 06:01:12;;;;;;;27.00;15.02;;;0.80;99.90;;;;;;5051471;28;20021;-70
2021/01/09 06:03:43;;;;;;;24.73;15.88;;;0.70;99.90;;;;;;5050543;28;20039;-70
2021/01/09 06:06:34;;;;;;;23.75;16.08;;;0.70;99.90;;;;;;5033244;28;20111;-70
2021/01/09 06:09:05;;;;;;;29.50;16.90;;;0.70;99.90;;;;;;5033679;28;20029;-72
2021/01/09 06:11:42;;;;;;;26.90;15.55;;;0.60;99.90;;;;;;5051455;28;20446;-70
2021/01/09 06:14:12;;;;;;;26.13;16.15;;;0.60;99.90;;;;;;5032688;28;20514;-70
2021/01/09 06:16:40;;;;;;;26.27;15.70;;;0.60;99.90;;;;;;5051260;28;20376;-70
2021/01/09 06:19:07;;;;;;;28.88;17.02;;;0.60;99.90;;;;;;5051222;28;20024;-72
2021/01/09 06:21:34;;;;;;;27.10;15.85;;;0.60;99.90;;;;;;5051227;28;20033;-70
2021/01/09 06:24:01;;;;;;;25.83;15.30;;;0.60;99.90;;;;;;5050436;28;20451;-69
2021/01/09 06:26:28;;;;;;;25.05;15.63;;;0.60;99.90;;;;;;5051131;28;20083;-69
2021/01/09 06:28:58;;;;;;;23.98;15.02;;;0.60;99.90;;;;;;5051271;28;20631;-71
2021/01/09 06:31:28;;;;;;;23.75;14.65;;;0.70;99.90;;;;;;5053865;28;20479;-70
2021/01/09 06:33:56;;;;;;;25.40;16.42;;;0.70;99.90;;;;;;5054119;28;20041;-70
2021/01/09 06:36:23;;;;;;;26.92;16.30;;;0.60;99.90;;;;;;5054554;28;20021;-71
2021/01/09 06:38:53;;;;;;;25.40;16.13;;;0.60;99.90;;;;;;5055069;28;20017;-68
2021/01/09 06:41:20;;;;;;;28.08;16.75;;;0.60;99.90;;;;;;5032946;28;20554;-70
2021/01/09 06:43:53;;;;;;;27.42;17.10;;;0.60;99.90;;;;;;5033989;28;20078;-69
2021/01/09 06:46:35;;;;;;;26.60;16.58;;;0.60;99.90;;;;;;5034638;28;20475;-70
2021/01/09 06:49:02;;;;;;;28.83;16.65;;;0.60;99.90;;;;;;5034946;28;20022;-69
2021/01/09 06:51:41;;;;;;;26.70;16.33;;;0.60;99.90;;;;;;5036077;28;20033;-69
2021/01/09 06:54:15;;;;;;;28.80;16.98;;;0.60;99.90;;;;;;5035398;28;20044;-71
2021/01/09 06:56:43;;;;;;;27.73;17.33;;;0.70;99.90;;;;;;5035916;28;20462;-72
2021/01/09 06:59:09;;;;;;;27.33;16.88;;;0.70;99.90;;;;;;5034928;28;20048;-70
2021/01/09 07:01:38;;;;;;;29.75;17.55;;;0.70;99.90;;;;;;5035052;28;20037;-70
2021/01/09 07:04:05;;;;;;;30.63;17.25;;;0.60;99.90;;;;;;5035299;28;20033;-69
2021/01/09 07:06:59;;;;;;;27.90;17.90;;;0.60;99.90;;;;;;5034777;28;20044;-70
2021/01/09 07:09:27;;;;;;;27.60;17.05;;;0.60;99.90;;;;;;5034708;28;20104;-69
2021/01/09 07:11:54;;;;;;;24.35;15.88;;;0.60;99.90;;;;;;5034364;28;20514;-71
2021/01/09 07:14:20;;;;;;;24.95;16.13;;;0.60;99.90;;;;;;5033625;28;20076;-70
2021/01/09 07:16:48;;;;;;;25.73;16.00;;;0.60;99.90;;;;;;5033951;28;20063;-70
2021/01/09 07:19:16;;;;;;;25.05;16.13;;;0.60;99.90;;;;;;5034207;28;20037;-69
2021/01/09 07:21:46;;;;;;;27.13;16.17;;;0.60;99.90;;;;;;5033958;28;20026;-71
2021/01/09 07:24:16;;;;;;;27.20;16.02;;;0.70;99.90;;;;;;5032493;28;20075;-69
2021/01/09 07:26:42;;;;;;;23.63;14.88;;;0.70;99.90;;;;;;5033910;28;20021;-71
2021/01/09 07:29:08;;;;;;;27.83;15.60;;;0.70;99.90;;;;;;5016087;28;20029;-72
2021/01/09 07:31:39;;;;;;;23.88;15.40;;;0.70;99.90;;;;;;5034054;28;20025;-70
2021/01/09 07:34:11;;;;;;;24.17;14.00;;;0.80;99.90;;;;;;5033248;28;20051;-69
2021/01/09 07:36:38;;;;;;;23.27;14.68;;;0.80;99.90;;;;;;5051363;28;20056;-70
2021/01/09 07:39:05;;;;;;;23.80;14.50;;;0.80;99.90;;;;;;5053958;28;20013;-70
2021/01/09 07:41:31;;;;;;;24.98;14.77;;;0.90;99.90;;;;;;5042259;28;20029;-69
2021/01/09 07:44:14;;;;;;;22.02;13.98;;;0.90;99.90;;;;;;5036249;28;20029;-69
2021/01/09 07:46:55;;;;;;;23.65;14.52;;;1.00;99.90;;;;;;5054746;28;20024;-69
2021/01/09 07:49:28;;;;;;;23.60;15.32;;;1.10;99.90;;;;;;5054881;28;20032;-70
2021/01/09 07:51:59;;;;;;;20.33;13.27;;;1.10;99.90;;;;;;5030588;28;20406;-69
2021/01/09 07:54:39;;;;;;;24.73;15.48;;;1.20;99.90;;;;;;5032623;28;20053;-69
2021/01/09 07:57:17;;;;;;;21.52;13.90;;;1.30;99.90;;;;;;5033349;28;20104;-69
2021/01/09 08:00:00;;;;;;;21.88;14.13;;;1.40;99.90;;;;;;5042596;28;20379;-70
2021/01/09 08:02:34;;;;;;;21.80;14.35;;;1.40;99.90;;;;;;5034741;28;20033;-70
2021/01/09 08:05:07;;;;;;;26.75;15.95;;;1.50;99.90;;;;;;5052363;28;20112;-69
2021/01/09 08:07:35;;;;;;;25.23;15.88;;;1.60;99.90;;;;;;5052919;28;20021;-68
2021/01/09 08:10:19;;;;;;;23.15;14.90;;;1.60;99.90;;;;;;5052867;28;20179;-69
2021/01/09 08:12:46;;;;;;;24.73;15.15;;;1.80;99.90;;;;;;5051788;28;20092;-67
2021/01/09 08:15:12;;;;;;;23.42;14.90;;;2.00;99.90;;;;;;5052365;28;20021;-69
2021/01/09 08:17:38;;;;;;;23.80;15.27;;;2.10;99.90;;;;;;5050178;28;20502;-70
2021/01/09 08:20:09;;;;;;;23.35;16.10;;;2.30;99.90;;;;;;5032810;28;20026;-70
2021/01/09 08:22:36;;;;;;;25.77;16.23;;;2.20;99.90;;;;;;5032199;28;20036;-68
2021/01/09 08:25:09;;;;;;;23.13;14.93;;;2.30;99.90;;;;;;5032085;28;20068;-70
2021/01/09 08:27:44;;;;;;;25.58;16.20;;;2.20;99.90;;;;;;5032748;28;20099;-68
2021/01/09 08:30:15;;;;;;;28.25;18.35;;;2.20;99.90;;;;;;5033168;28;20033;-70
2021/01/09 08:32:42;;;;;;;28.20;17.50;;;2.20;99.90;;;;;;5031556;28;20021;-68
2021/01/09 08:35:09;;;;;;;24.40;16.05;;;2.20;99.90;;;;;;5037959;28;20033;-71
2021/01/09 08:37:35;;;;;;;24.45;16.13;;;2.10;99.90;;;;;;5052615;28;20082;-70
2021/01/09 08:40:18;;;;;;;26.52;16.85;;;2.20;99.90;;;;;;5052187;28;20048;-70
2021/01/09 08:42:55;;;;;;;27.02;17.17;;;2.10;99.90;;;;;;5046953;28;20032;-70
2021/01/09 08:45:46;;;;;;;27.55;17.88;;;2.10;99.90;;;;;;5048655;28;20036;-69
2021/01/09 08:48:17;;;;;;;28.35;16.48;;;2.10;99.90;;;;;;5036251;28;20029;-69
2021/01/09 08:50:50;;;;;;;28.73;17.03;;;2.10;99.90;;;;;;5032342;28;20420;-69
2021/01/09 08:53:17;;;;;;;27.48;17.73;;;2.10;99.90;;;;;;5030247;28;20492;-68
2021/01/09 08:55:43;;;;;;;27.08;16.27;;;2.00;99.90;;;;;;5031995;28;20101;-72
2021/01/09 08:58:12;;;;;;;29.02;17.77;;;2.10;99.90;;;;;;5031973;28;20017;-71
2021/01/09 09:00:38;;;;;;;27.30;18.27;;;2.00;99.90;;;;;;5032275;28;20027;-70
2021/01/09 09:03:06;;;;;;;29.05;18.05;;;2.20;99.90;;;;;;5031852;28;20025;-70
2021/01/09 09:05:32;;;;;;;26.58;17.58;;;2.10;99.90;;;;;;5041107;28;20040;-71
2021/01/09 09:08:01;;;;;;;29.17;17.77;;;2.40;99.90;;;;;;5048109;28;20022;-70
2021/01/09 09:10:30;;;;;;;26.30;17.15;;;2.40;99.90;;;;;;5032948;28;20045;-70
2021/01/09 09:13:16;;;;;;;27.80;18.00;;;2.40;99.90;;;;;;5031646;28;20044;-69
2021/01/09 09:15:42;;;;;;;30.27;18.25;;;2.50;99.90;;;;;;5031482;28;20034;-68
2021/01/09 09:18:10;;;;;;;29.45;19.20;;;2.20;99.90;;;;;;5032013;28;20079;-70
2021/01/09 09:20:36;;;;;;;26.00;18.33;;;2.20;99.90;;;;;;5044002;28;20505;-68
2021/01/09 09:23:24;;;;;;;31.98;20.17;;;2.10;99.90;;;;;;5050161;28;20475;-72
2021/01/09 09:26:13;;;;;;;31.25;18.55;;;2.10;99.90;;;;;;5051948;28;20025;-71
2021/01/09 09:28:52;;;;;;;31.30;19.30;;;2.10;99.90;;;;;;5052096;28;20632;-70
2021/01/09 09:31:35;;;;;;;27.48;18.73;;;2.00;99.90;;;;;;5043188;28;20029;-72
2021/01/09 09:34:26;;;;;;;28.70;19.15;;;1.90;99.90;;;;;;5038870;28;20017;-71
2021/01/09 09:36:52;;;;;;;33.42;20.95;;;1.90;99.90;;;;;;5036256;28;20053;-72
2021/01/09 09:39:23;;;;;;;31.63;20.67;;;1.90;99.90;;;;;;5031739;28;20060;-70
2021/01/09 09:41:59;;;;;;;33.88;21.98;;;2.10;99.90;;;;;;5031450;28;20025;-70
2021/01/09 09:44:45;;;;;;;32.80;20.30;;;2.00;99.90;;;;;;5030907;28;20033;-69
2021/01/09 09:47:22;;;;;;;29.48;20.63;;;2.10;99.90;;;;;;5031524;28;20399;-71
2021/01/09 09:49:48;;;;;;;34.30;20.05;;;2.20;99.90;;;;;;5013689;28;20083;-71
2021/01/09 09:52:19;;;;;;;37.45;22.10;;;2.30;99.90;;;;;;5031083;28;20396;-69
2021/01/09 09:54:45;;;;;;;34.70;21.33;;;2.40;99.90;;;;;;5030665;28;20056;-72
2021/01/09 09:57:21;;;;;;;33.88;20.85;;;2.30;99.90;;;;;;5013464;28;20026;-72
2021/01/09 09:59:47;;;;;;;35.80;21.38;;;2.30;99.90;;;;;;5036885;28;20057;-69
2021/01/09 10:02:19;;;;;;;33.65;22.35;;;2.40;99.90;;;;;;5042658;28;20048;-72
2021/01/09 10:04:45;;;;;;;35.67;23.02;;;2.50;99.90;;;;;;5049563;28;20021;-70
2021/01/09 10:07:24;;;;;;;38.95;23.45;;;2.60;99.90;;;;;;5055184;28;20076;-70
2021/01/09 10:09:50;;;;;;;38.85;22.27;;;2.70;99.90;;;;;;5055394;28;20390;-69
2021/01/09 10:12:16;;;;;;;36.63;21.58;;;2.70;99.90;;;;;;5054851;28;20025;-70
2021/01/09 10:14:42;;;;;;;36.22;22.30;;;2.70;99.90;;;;;;5054437;28;20096;-71
2021/01/09 10:17:14;;;;;;;34.38;21.23;;;2.80;99.90;;;;;;5055116;28;20096;-70
2021/01/09 10:19:39;;;;;;;;;;;2.80;99.90;;;;;;5035835;28;20017;-66
2021/01/09 10:22:05;;;;;;;32.40;20.42;;;2.90;99.90;;;;;;5034676;28;20333;-69
2021/01/09 10:24:31;;;;;;;32.83;20.42;;;2.80;99.90;;;;;;5034413;28;20021;-66
2021/01/09 10:26:56;;;;;;;41.20;26.17;;;2.90;99.90;;;;;;5035111;28;20030;-66
2021/01/09 10:29:22;;;;;;;38.45;24.17;;;2.90;99.90;;;;;;5035018;28;20087;-66
2021/01/09 10:31:47;;;;;;;34.67;20.45;;;2.90;99.90;;;;;;5034944;28;20029;-67
2021/01/09 10:34:13;;;;;;;33.25;20.65;;;3.00;99.90;;;;;;5033936;28;20021;-67
2021/01/09 10:36:39;;;;;;;33.22;19.98;;;3.10;99.90;;;;;;5052466;28;20471;-69
2021/01/09 10:39:07;;;;;;;29.92;19.83;;;3.30;99.90;;;;;;5055007;28;20033;-66
2021/01/09 10:41:32;;;;;;;27.02;17.88;;;3.60;99.90;;;;;;5043653;28;20060;-69
2021/01/09 10:43:58;;;;;;;27.70;17.55;;;4.10;99.90;;;;;;5020668;28;20432;-70
2021/01/09 10:46:28;;;;;;;28.60;16.92;;;4.60;99.90;;;;;;5054215;28;20104;-70
2021/01/09 10:48:55;;;;;;;22.98;14.43;;;5.10;99.90;;;;;;5054474;28;20052;-71
2021/01/09 10:51:22;;;;;;;23.48;15.45;;;5.40;99.90;;;;;;5054369;28;20029;-66
2021/01/09 10:53:48;;;;;;;19.65;13.35;;;5.80;99.90;;;;;;5053375;28;20248;-65
2021/01/09 10:56:14;;;;;;;20.73;13.88;;;5.90;99.90;;;;;;5054361;28;20095;-72
2021/01/09 10:58:40;;;;;;;21.42;13.00;;;6.70;99.90;;;;;;5036538;28;20029;-72
2021/01/09 11:01:08;;;;;;;17.85;13.02;;;7.70;99.90;;;;;;5034847;28;20033;-73
2021/01/09 11:03:34;;;;;;;18.30;12.00;;;9.00;99.90;;;;;;5033896;28;20045;-75
2021/01/09 11:06:00;;;;;;;15.65;11.80;;;10.20;99.90;;;;;;5047206;28;20478;-71
2021/01/09 11:08:27;;;;;;;14.82;11.18;;;12.10;98.20;;;;;;5057183;28;20029;-71
2021/01/09 11:10:55;;;;;;;14.25;11.57;;;12.70;96.30;;;;;;5058319;28;20466;-72
2021/01/09 11:13:20;;;;;;;13.73;11.68;;;11.70;95.90;;;;;;5054996;28;20021;-70
2021/01/09 11:15:49;;;;;;;13.25;11.85;;;11.70;95.90;;;;;;5061956;28;20033;-73
2021/01/09 11:18:15;;;;;;;13.32;11.38;;;12.30;94.90;;;;;;5045789;28;20027;-72
2021/01/09 11:20:55;;;;;;;13.07;11.00;;;13.70;92.50;;;;;;5043801;28;20068;-72
2021/01/09 11:23:21;;;;;;;15.73;12.07;;;14.30;91.70;;;;;;5016338;28;20495;-67
2021/01/09 11:25:48;;;;;;;13.02;11.20;;;14.00;90.30;;;;;;5034514;28;20495;-67
2021/01/09 11:28:15;;;;;;;12.20;10.52;;;13.40;90.90;;;;;;5034119;28;20540;-66
2021/01/09 11:30:41;;;;;;;12.70;11.25;;;13.70;90.20;;;;;;5035121;28;20052;-74
2021/01/09 11:33:07;;;;;;;15.27;11.18;;;14.10;88.50;;;;;;5045816;28;20029;-73
2021/01/09 11:35:38;;;;;;;12.68;11.20;;;14.60;86.10;;;;;;5051839;28;20429;-73
2021/01/09 11:38:04;;;;;;;14.82;11.73;;;15.90;79.60;;;;;;5060434;28;20021;-74
2021/01/09 11:40:29;;;;;;;12.85;10.95;;;15.60;79.40;;;;;;5054626;28;20399;-74
2021/01/09 11:42:55;;;;;;;13.65;11.25;;;14.70;78.30;;;;;;5015886;28;20029;-74
2021/01/09 11:45:23;;;;;;;12.70;11.40;;;13.30;83.20;;;;;;5033807;28;20035;-73
2021/01/09 11:47:49;;;;;;;13.90;11.88;;;12.80;84.60;;;;;;5033756;28;20017;-74
2021/01/09 11:50:14;;;;;;;15.52;13.57;;;10.90;88.60;;;;;;5034048;28;20043;-73
2021/01/09 11:52:40;;;;;;;17.00;13.82;;;8.80;92.90;;;;;;5033812;28;20112;-73
2021/01/09 11:55:07;;;;;;;18.42;14.23;;;7.30;96.00;;;;;;5036829;28;20025;-70
2021/01/09 11:57:33;;;;;;;18.00;14.70;;;6.10;99.00;;;;;;5019795;28;20033;-72
2021/01/09 11:59:59;;;;;;;20.65;16.02;;;5.20;99.90;;;;;;5019903;28;20136;-73
2021/01/09 12:02:24;;;;;;;21.90;15.65;;;4.70;99.90;;;;;;5019671;28;20364;-72
2021/01/09 12:04:50;;;;;;;23.58;15.88;;;4.50;99.90;;;;;;5037541;28;20052;-73
2021/01/09 12:07:16;;;;;;;25.33;16.38;;;4.50;99.90;;;;;;5053713;28;20270;-72
2021/01/09 12:09:42;;;;;;;23.70;16.30;;;4.70;99.90;;;;;;5054644;28;20407;-72
2021/01/09 12:12:07;;;;;;;23.52;16.42;;;4.90;99.90;;;;;;5054161;28;20071;-72
2021/01/09 12:14:34;;;;;;;20.52;14.18;;;4.50;99.90;;;;;;5046659;28;20495;-71
2021/01/09 12:17:00;;;;;;;22.83;14.65;;;4.40;99.90;;;;;;5032859;28;20472;-70
2021/01/09 12:19:27;;;;;;;19.55;13.68;;;4.60;99.90;;;;;;5033038;28;20029;-73
2021/01/09 12:21:53;;;;;;;22.13;14.27;;;4.40;99.90;;;;;;5032873;28;20017;-73
2021/01/09 12:24:19;;;;;;;24.83;14.13;;;4.30;99.90;;;;;;5031398;28;20029;-71
2021/01/09 12:26:45;;;;;;;20.17;13.40;;;4.60;99.90;;;;;;5034490;28;20025;-71
2021/01/09 12:29:10;;;;;;;21.20;13.27;;;4.80;99.90;;;;;;5051558;28;20036;-72
2021/01/09 12:31:37;;;;;;;25.00;13.77;;;4.80;99.90;;;;;;5051838;28;20040;-70
2021/01/09 12:34:03;;;;;;;19.25;13.30;;;4.70;99.90;;;;;;5031811;28;20053;-69
2021/01/09 12:36:29;;;;;;;20.27;12.68;;;4.70;99.90;;;;;;5048466;28;20021;-71
2021/01/09 12:38:55;;;;;;;23.95;14.95;;;4.70;99.90;;;;;;5037661;28;20391;-71
2021/01/09 12:41:34;;;;;;;20.50;13.27;;;4.80;99.90;;;;;;5032979;28;20022;-71